Time;durP1;ratioP1;P1;durP2;ratioP2;P2;SDS_P1;SDS_P2;PMS_P1;PMS_P2;Temp;Humidity;BMP_temperature;BMP_pressure;BME280_temperature;BME280_humidity;BME280_pressure;Samples;Min_cycle;Max_cycle;Signal;HPM_P1;HPM_P2
2021/12/08 06:29:19;;;;;;;2.90;1.30;;;;;;;1.75;88.91;99219.35;105295;1315;72802;-75
2021/12/08 06:31:52;;;;;;;4.00;1.50;;;;;;;1.73;88.93;99227.19;103869;1329;75162;-77
2021/12/08 06:34:20;;;;;;;5.60;1.70;;;;;;;1.76;89.14;99226.77;103612;1333;74269;-76
2021/12/08 06:36:56;;;;;;;3.80;1.70;;;;;;;1.79;89.30;99231.90;103859;1327;62548;-77
2021/12/08 06:39:30;;;;;;;2.20;1.10;;;;;;;1.79;89.21;99232.00;103897;1330;60674;-77
2021/12/08 06:42:04;;;;;;;4.40;1.80;;;;;;;1.80;89.23;99234.02;103871;1330;75435;-76
2021/12/08 06:44:45;;;;;;;;;;;;;;;;;;;;;
2021/12/08 06:47:16;;;;;;;2.50;1.20;;;;;;;1.83;89.09;99236.31;103900;1330;73038;-77
2021/12/08 06:49:50;;;;;;;3.30;1.80;;;;;;;1.83;89.03;99236.46;103855;1330;62250;-77
2021/12/08 06:52:21;;;;;;;4.70;1.30;;;;;;;1.85;88.96;99232.81;103574;1337;61864;-77
2021/12/08 06:54:54;;;;;;;1.50;0.90;;;;;;;1.86;88.92;99238.11;103770;1330;75190;-77
2021/12/08 06:57:29;;;;;;;2.00;1.00;;;;;;;1.86;89.01;99248.45;103776;1331;72757;-78
2021/12/08 07:00:32;;;;;;;5.10;3.80;;;;;;;1.86;88.86;99247.73;103734;1330;74410;-79
2021/12/08 07:03:46;;;;;;;6.80;1.80;;;;;;;1.86;88.78;99258.15;103744;1330;62509;-79
2021/12/08 07:06:39;;;;;;;;;;;;;;;;;;;;;
2021/12/08 07:08:53;;;;;;;1.80;1.40;;;;;;;1.88;88.55;99247.86;103598;1330;75153;-79
2021/12/08 07:11:39;;;;;;;5.10;1.70;;;;;;;1.90;88.69;99244.38;103877;1330;71945;-79
2021/12/08 07:14:21;;;;;;;4.20;2.00;;;;;;;1.91;88.38;99246.64;103900;1329;74063;-79
2021/12/08 07:17:05;;;;;;;;;;;;;;;;;;;;;
2021/12/08 07:22:35;;;;;;;2.70;1.10;;;;;;;1.97;88.05;99264.04;104055;1315;72713;-78
2021/12/08 07:25:04;;;;;;;3.40;1.80;;;;;;;1.98;87.89;99269.11;104364;1325;71600;-79
2021/12/08 07:27:34;;;;;;;3.30;1.80;;;;;;;1.99;87.84;99268.74;104381;1328;71870;-78
2021/12/08 07:30:08;;;;;;;5.30;1.90;;;;;;;2.00;87.82;99271.54;104344;1327;60887;-78
2021/12/08 07:32:45;;;;;;;2.50;1.60;;;;;;;2.00;87.93;99271.56;104357;1327;60712;-78
2021/12/08 07:35:27;;;;;;;4.70;1.50;;;;;;;2.00;87.81;99278.72;103936;1327;75282;-78
2021/12/08 07:37:56;;;;;;;2.50;1.30;;;;;;;2.03;87.77;99279.75;104005;1325;70393;-77
2021/12/08 07:40:34;;;;;;;2.40;1.50;;;;;;;2.07;87.90;99283.95;104401;1328;73161;-79
2021/12/08 07:43:15;;;;;;;5.00;1.80;;;;;;;2.09;87.95;99279.72;103597;1334;60789;-79
2021/12/08 07:46:18;;;;;;;2.30;1.20;;;;;;;2.11;88.02;99277.67;104673;1325;60674;-78
2021/12/08 07:48:55;;;;;;;2.50;1.00;;;;;;;2.11;88.02;99279.91;104530;1324;75300;-79
2021/12/08 07:51:37;;;;;;;3.60;1.40;;;;;;;2.09;87.84;99277.86;104617;1324;70624;-78
2021/12/08 07:54:18;;;;;;;5.70;1.70;;;;;;;2.14;87.59;99285.65;103865;1324;73158;-78
2021/12/08 07:56:54;;;;;;;3.10;1.60;;;;;;;2.18;87.53;99288.38;104676;1324;62328;-79
2021/12/08 07:59:29;;;;;;;4.20;1.80;;;;;;;2.20;87.56;99282.65;104393;1328;62150;-78
2021/12/08 08:02:17;;;;;;;3.00;1.20;;;;;;;2.26;87.39;99291.59;104443;1325;73023;-80
2021/12/08 08:04:49;;;;;;;3.10;1.00;;;;;;;2.28;87.59;99290.69;104578;1324;72281;-79
2021/12/08 08:07:16;;;;;;;2.40;1.00;;;;;;;2.30;87.50;99298.38;104562;1325;73101;-79
2021/12/08 08:09:58;;;;;;;3.90;2.10;;;;;;;2.33;87.29;99299.80;104519;1322;60325;-79
2021/12/08 08:12:36;;;;;;;2.60;1.80;;;;;;;2.37;87.22;99288.86;104709;1324;62313;-79
2021/12/08 08:15:10;;;;;;;2.90;1.40;;;;;;;2.40;86.91;99282.72;104711;1325;74315;-79
2021/12/08 08:17:44;;;;;;;2.90;1.70;;;;;;;2.41;87.04;99277.34;104452;1324;72755;-79
2021/12/08 08:21:15;;;;;;;3.20;1.40;;;;;;;2.42;87.27;99285.97;104742;1324;72959;-80
2021/12/08 08:23:42;;;;;;;3.00;1.70;;;;;;;2.44;86.87;99287.48;104490;1325;61499;-79
2021/12/08 08:26:13;;;;;;;2.20;1.00;;;;;;;2.47;86.79;99289.10;104494;1324;61017;-79
2021/12/08 08:28:54;;;;;;;2.10;1.40;;;;;;;2.47;86.79;99282.14;104478;1325;74471;-79
2021/12/08 08:31:29;;;;;;;1.70;1.00;;;;;;;2.46;87.12;99270.56;104266;1327;71548;-80
2021/12/08 08:34:00;;;;;;;6.30;2.00;;;;;;;2.46;87.21;99278.92;103549;1331;73975;-78
2021/12/08 08:37:03;;;;;;;2.90;1.60;;;;;;;2.48;87.04;99283.96;104387;1313;62333;-78
2021/12/08 08:40:03;;;;;;;3.40;1.70;;;;;;;2.50;86.84;99298.92;104396;1324;59870;-79
2021/12/08 08:42:41;;;;;;;3.40;1.90;;;;;;;2.54;86.95;99309.69;104342;1325;73911;-78
2021/12/08 08:45:29;;;;;;;6.50;1.80;;;;;;;2.58;86.66;99310.73;104287;1325;71541;-81
2021/12/08 08:48:22;;;;;;;3.70;1.40;;;;;;;2.62;86.53;99303.59;104505;1325;73079;-80
2021/12/08 08:53:26;;;;;;;4.90;1.50;;;;;;;2.76;85.99;99301.55;103963;1312;60663;-78
2021/12/08 08:56:06;;;;;;;3.00;1.30;;;;;;;2.81;85.71;99292.75;104412;1325;74511;-79
2021/12/08 08:58:45;;;;;;;2.50;1.50;;;;;;;2.85;85.60;99279.77;104326;1327;72717;-78
2021/12/08 09:01:39;;;;;;;3.30;1.60;;;;;;;2.88;85.34;99298.40;104423;1324;73976;-79
2021/12/08 09:04:41;;;;;;;2.00;1.40;;;;;;;2.90;85.08;99298.68;104285;1324;61526;-79
2021/12/08 09:10:21;;;;;;;3.20;1.60;;;;;;;2.96;85.36;99294.70;104196;1327;74269;-79
2021/12/08 09:12:56;;;;;;;4.80;1.70;;;;;;;3.01;85.19;99310.30;104171;1326;72410;-78
2021/12/08 09:15:54;;;;;;;3.00;2.10;;;;;;;3.07;85.42;99316.46;104290;1326;74016;-80
2021/12/08 09:18:43;;;;;;;3.80;1.80;;;;;;;3.16;85.26;99310.79;104196;1315;61201;-79
2021/12/08 09:21:39;;;;;;;2.50;1.40;;;;;;;3.18;84.87;99304.27;103810;1314;60841;-79
2021/12/08 09:24:38;;;;;;;3.70;1.90;;;;;;;3.21;85.04;99310.10;104423;1325;74212;-79
2021/12/08 09:27:21;;;;;;;2.90;1.80;;;;;;;3.25;84.65;99317.02;104461;1325;72609;-80
2021/12/08 09:30:32;;;;;;;3.60;1.60;;;;;;;3.30;84.47;99320.30;104087;1314;73389;-77
2021/12/08 09:38:17;;;;;;;3.50;1.90;;;;;;;3.57;84.10;99306.16;104723;1312;72671;-78
2021/12/08 09:41:03;;;;;;;3.10;1.30;;;;;;;3.63;83.96;99323.45;104565;1325;71461;-78
2021/12/08 09:43:42;;;;;;;;;;;;;;;3.64;83.38;99312.30;104725;1324;73110;-79
2021/12/08 09:46:36;;;;;;;3.70;1.70;;;;;;;3.66;83.09;99306.31;104450;1324;59761;-79
2021/12/08 09:49:34;;;;;;;3.50;1.60;;;;;;;3.68;83.07;99310.48;104149;1327;61752;-79
2021/12/08 09:52:12;;;;;;;3.10;1.30;;;;;;;3.67;83.11;99312.92;104445;1328;74462;-79
2021/12/08 09:54:51;;;;;;;3.10;1.70;;;;;;;3.65;82.99;99315.93;104332;1326;71850;-80
2021/12/08 09:57:18;;;;;;;3.90;2.10;;;;;;;3.69;83.18;99337.54;104431;1324;71986;-79
2021/12/08 10:00:02;;;;;;;4.70;1.50;;;;;;;3.72;83.57;99350.16;104581;1324;61036;-79
2021/12/08 10:02:46;;;;;;;4.20;1.80;;;;;;;3.76;83.49;99339.08;104718;1319;60712;-80
2021/12/08 10:05:39;;;;;;;3.20;1.80;;;;;;;3.76;83.46;99329.77;103697;1315;75658;-80
2021/12/08 10:08:43;;;;;;;4.70;2.10;;;;;;;3.76;83.20;99323.30;104391;1330;72994;-80
2021/12/08 10:11:11;;;;;;;2.40;1.50;;;;;;;3.77;83.13;99325.67;103937;1324;73919;-83
2021/12/08 10:13:38;;;;;;;5.10;1.70;;;;;;;3.76;83.37;99322.95;104456;1324;61664;-80
2021/12/08 10:16:11;;;;;;;4.00;1.70;;;;;;;3.76;83.40;99316.13;104454;1324;61560;-80
2021/12/08 10:24:00;;;;;;;5.20;1.80;;;;;;;3.76;83.74;99340.66;103535;1317;73239;-79
2021/12/08 10:26:42;;;;;;;4.80;1.90;;;;;;;3.79;83.77;99334.79;104073;1324;61486;-80
2021/12/08 10:29:14;;;;;;;3.40;1.70;;;;;;;3.80;83.73;99319.92;104183;1311;60490;-79
2021/12/08 10:34:46;;;;;;;;;;;;;;;;;;;;;
2021/12/08 10:40:06;;;;;;;7.10;2.60;;;;;;;3.93;84.09;99309.13;104441;1313;61517;-80
2021/12/08 10:48:54;;;;;;;5.00;2.20;;;;;;;4.04;83.49;99299.27;104158;1314;66771;-81
2021/12/08 10:54:46;;;;;;;3.30;1.50;;;;;;;4.13;83.17;99293.13;103608;1333;58816;-81
2021/12/08 10:58:20;;;;;;;;;;;;;;;;;;;;;
2021/12/08 11:08:46;;;;;;;2.10;1.30;;;;;;;4.45;83.68;99310.52;104560;1312;59756;-77
2021/12/08 11:11:43;;;;;;;;;;;;;;;;;;;;;
2021/12/08 11:14:52;;;;;;;5.30;2.10;;;;;;;4.62;82.87;99306.05;104576;1327;73854;-79
2021/12/08 11:17:39;;;;;;;;;;;;;;;;;;;;;
2021/12/08 11:20:45;;;;;;;5.00;1.90;;;;;;;4.83;81.98;99299.13;103697;1331;74035;-79
2021/12/08 11:27:04;;;;;;;;;;;;;;;;;;;;;
2021/12/08 11:30:16;;;;;;;2.50;1.20;;;;;;;4.98;81.16;99305.63;104331;1323;74420;-79
2021/12/08 11:33:24;;;;;;;6.20;1.80;;;;;;;5.01;80.98;99295.39;104480;1325;72842;-80
2021/12/08 11:36:17;;;;;;;;;;;;;;;;;;;;;
2021/12/08 11:38:50;;;;;;;6.30;1.90;;;;;;;5.16;80.74;99291.58;104333;1331;61672;-79
2021/12/08 11:42:06;;;;;;;;;;;;;;;;;;;;;
2021/12/08 11:47:35;;;;;;;4.20;1.40;;;;;;;5.30;80.02;99313.83;104434;1313;71504;-80
2021/12/08 11:53:11;;;;;;;;;;;;;;;;;;;;;
2021/12/08 11:56:39;;;;;;;2.50;1.70;;;;;;;5.56;79.97;99314.90;104233;1326;61724;-78
2021/12/08 11:59:27;;;;;;;3.90;1.50;;;;;;;5.72;80.11;99311.11;104114;1326;74210;-79
2021/12/08 12:02:34;;;;;;;4.00;1.80;;;;;;;5.80;78.77;99314.99;104312;1327;70405;-80
2021/12/08 12:08:44;;;;;;;;;;;;;;;;;;;;;
2021/12/08 12:11:34;;;;;;;3.00;1.30;;;;;;;5.79;75.40;99311.23;104340;1314;59047;-79
2021/12/08 12:14:51;;;;;;;4.00;1.20;;;;;;;5.83;76.65;99303.08;104492;1324;74147;-79
2021/12/08 12:18:08;;;;;;;;;;;;;;;;;;;;;
2021/12/08 12:20:39;;;;;;;3.00;1.50;;;;;;;5.93;75.53;99321.24;104449;1328;71966;-76
2021/12/08 12:23:34;;;;;;;;;;;;;;;;;;;;;
2021/12/08 12:26:04;;;;;;;;;;;;;;;5.66;74.70;99327.21;104396;1327;60424;-79
2021/12/08 12:28:54;;;;;;;;;;;;;;;;;;;;;
2021/12/08 12:35:43;;;;;;;4.70;1.70;;;;;;;5.20;76.79;99321.95;104346;1328;72734;-80
2021/12/08 12:38:43;;;;;;;;;;;;;;;;;;;;;
2021/12/08 12:41:44;;;;;;;2.60;1.60;;;;;;;5.00;77.26;99305.52;104372;1317;62799;-81
2021/12/08 12:45:14;;;;;;;;;;;;;;;;;;;;;
2021/12/08 12:48:15;;;;;;;2.20;1.30;;;;;;;4.97;78.15;99304.67;104313;1324;71598;-79
2021/12/08 12:51:29;;;;;;;;;;;;;;;;;;;;;
2021/12/08 12:55:01;;;;;;;;;;;;;;;;;;;;;
2021/12/08 12:58:32;;;;;;;;;;;;;;;;;;;;;
2021/12/08 13:01:25;;;;;;;;;;;;;;;;;;;;;
2021/12/08 13:04:13;;;;;;;;;;;;;;;;;;;;;
2021/12/08 13:06:48;;;;;;;5.50;2.40;;;;;;;4.74;79.93;99297.60;104512;1326;73951;-80
2021/12/08 13:09:46;;;;;;;5.60;2.30;;;;;;;4.73;80.00;99305.25;104607;1325;61678;-79
2021/12/08 13:12:50;;;;;;;;;;;;;;;;;;;;;
2021/12/08 13:16:26;;;;;;;5.60;2.50;;;;;;;4.71;80.63;99308.94;100199;1324;5719734;-79
2021/12/08 13:19:47;;;;;;;4.60;2.10;;;;;;;4.74;80.90;99314.58;103334;1341;72701;-81
2021/12/08 13:23:06;;;;;;;2.50;1.50;;;;;;;4.77;81.24;99320.02;104575;1328;60485;-79
2021/12/08 13:26:05;;;;;;;4.70;2.20;;;;;;;4.76;81.32;99326.20;103939;1331;61654;-78
2021/12/08 13:29:20;;;;;;;;;;;;;;;;;;;;;
2021/12/08 13:32:43;;;;;;;;;;;;;;;;;;;;;
2021/12/08 13:36:10;;;;;;;;;;;;;;;;;;;;;
2021/12/08 13:39:14;;;;;;;3.70;2.10;;;;;;;4.60;82.32;99316.83;104411;1326;61139;-79
2021/12/08 13:43:05;;;;;;;8.80;2.60;;;;;;;4.53;82.17;99312.13;104306;1324;60830;-79
2021/12/08 13:49:01;;;;;;;;;;;;;;;;;;;;;
2021/12/08 13:52:17;;;;;;;3.60;1.70;;;;;;;4.51;82.77;99325.05;103196;1343;75862;-76
2021/12/08 13:55:16;;;;;;;7.40;2.20;;;;;;;4.48;82.95;99327.19;103453;1311;59977;-77
2021/12/08 13:58:22;;;;;;;;;;;;;;;;;;;;;
2021/12/08 14:01:56;;;;;;;3.80;2.50;;;;;;;4.45;83.25;99323.55;104411;1329;75681;-78
2021/12/08 14:07:37;;;;;;;3.50;2.00;;;;;;;4.35;83.41;99328.14;104554;1314;71281;-77
2021/12/08 14:10:53;;;;;;;;;;;;;;;;;;;;;
2021/12/08 14:13:53;;;;;;;;;;;;;;;;;;;;;
2021/12/08 14:16:34;;;;;;;;;;;;;;;;;;;;;
2021/12/08 14:19:16;;;;;;;6.50;2.50;;;;;;;4.05;84.18;99331.39;104203;1324;71419;-78
2021/12/08 14:21:54;;;;;;;5.70;3.70;;;;;;;3.96;84.42;99332.42;104449;1324;73525;-78
2021/12/08 14:24:47;;;;;;;;;;;;;;;;;;;;;
2021/12/08 14:27:17;;;;;;;4.40;2.20;;;;;;;3.80;84.96;99334.66;104375;1324;61808;-78
2021/12/08 14:30:47;;;;;;;3.50;2.40;;;;;;;3.73;85.35;99343.64;104224;1325;75305;-77
2021/12/08 14:34:04;;;;;;;;;;;;;;;;;;;;;
2021/12/08 14:37:14;;;;;;;2.70;1.60;;;;;;;3.53;86.25;99355.61;104208;1324;72943;-77
2021/12/08 14:40:20;;;;;;;6.20;2.60;;;;;;;3.44;86.67;99356.73;104283;1327;62730;-76
2021/12/08 14:43:22;;;;;;;5.80;3.00;;;;;;;3.39;86.66;99354.98;104174;1326;61589;-77
2021/12/08 14:45:57;;;;;;;5.50;2.10;;;;;;;3.35;86.97;99351.50;104223;1326;71847;-79
2021/12/08 14:49:10;;;;;;;;;;;;;;;;;;;;;
2021/12/08 14:52:07;;;;;;;;;;;;;;;;;;;;;
2021/12/08 14:55:04;;;;;;;5.50;2.20;;;;;;;3.18;88.34;99347.43;104425;1325;60875;-77
2021/12/08 14:57:36;;;;;;;6.00;1.80;;;;;;;3.11;89.13;99348.34;103689;1327;61872;-78
2021/12/08 15:00:55;;;;;;;5.50;2.20;;;;;;;3.05;89.82;99349.48;103740;1329;75141;-78
2021/12/08 15:04:22;;;;;;;3.80;2.10;;;;;;;2.99;89.69;99356.89;104198;1326;71407;-78
2021/12/08 15:07:14;;;;;;;;;;;;;;;;;;;;;
2021/12/08 15:10:15;;;;;;;5.00;2.10;;;;;;;2.88;90.01;99359.14;104353;1327;61548;-77
2021/12/08 15:12:58;;;;;;;;;;;;;;;;;;;;;
2021/12/08 15:15:59;;;;;;;;;;;;;;;;;;;;;
2021/12/08 15:19:21;;;;;;;;;;;;;;;;;;;;;
2021/12/08 15:22:27;;;;;;;6.20;2.70;;;;;;;2.67;91.05;99356.69;104039;1327;74026;-78
2021/12/08 15:25:42;;;;;;;;;;;;;;;;;;;;;
2021/12/08 15:28:46;;;;;;;4.70;3.00;;;;;;;2.63;90.62;99365.87;103077;1336;61748;-78
2021/12/08 15:31:57;;;;;;;;;;;;;;;;;;;;;
2021/12/08 15:35:34;;;;;;;4.30;2.60;;;;;;;2.62;90.72;99366.00;103992;1327;72092;-79
2021/12/08 15:38:16;;;;;;;7.20;3.50;;;;;;;2.59;90.48;99366.41;103374;1334;74116;-77
2021/12/08 15:40:53;;;;;;;6.90;3.10;;;;;;;2.53;90.27;99357.84;103830;1330;60957;-76
2021/12/08 15:43:50;;;;;;;4.90;2.70;;;;;;;2.46;90.38;99350.80;104137;1330;60650;-76
2021/12/08 15:46:55;;;;;;;;;;;;;;;;;;;;;
2021/12/08 18:26:23;;;;;;;8.40;5.00;;;;;;;1.33;96.59;99471.05;105219;1319;71448;31
2021/12/08 20:04:27;;;;;;;;;;;;;;;;;;;;;
2021/12/08 20:34:44;;;;;;;14.70;7.00;;;;;;;1.17;96.30;99560.81;104428;1319;62204;-85
2021/12/08 20:39:56;;;;;;;12.40;7.40;;;;;;;1.13;96.45;99565.36;104200;1319;65885;-85
2021/12/08 21:37:38;;;;;;;15.00;6.60;;;;;;;1.27;96.55;99571.98;105006;1319;71497;-82
